createdAt,value
2022-10-26T00:01:14.558Z,19.10
2022-10-26T00:03:43.940Z,19.00
2022-10-26T00:06:19.730Z,19.00
2022-10-26T00:08:48.639Z,19.00
2022-10-26T00:11:16.607Z,18.90
2022-10-26T00:13:45.145Z,18.90
2022-10-26T00:16:19.425Z,18.90
2022-10-26T00:18:47.130Z,18.90
2022-10-26T00:21:14.561Z,18.90
2022-10-26T00:23:41.845Z,18.90
2022-10-26T00:26:09.865Z,18.90
2022-10-26T00:28:37.101Z,18.90
2022-10-26T00:31:08.657Z,19.00
2022-10-26T00:33:39.629Z,19.00
2022-10-26T00:36:09.526Z,19.00
2022-10-26T00:38:37.279Z,19.00
2022-10-26T00:41:04.643Z,19.00
2022-10-26T00:43:31.798Z,19.00
2022-10-26T00:46:00.009Z,18.90
2022-10-26T00:48:38.503Z,18.90
2022-10-26T00:51:24.206Z,18.80
2022-10-26T00:53:52.937Z,18.80
2022-10-26T00:56:20.272Z,18.80
2022-10-26T00:58:47.990Z,18.80
2022-10-26T01:01:15.795Z,18.80
2022-10-26T01:03:44.223Z,18.80
2022-10-26T01:06:13.901Z,18.80
2022-10-26T01:08:43.393Z,18.80
2022-10-26T01:11:11.323Z,18.70
2022-10-26T01:13:38.738Z,18.70
2022-10-26T01:16:31.867Z,18.70
2022-10-26T01:19:04.956Z,18.70
2022-10-26T01:21:59.842Z,18.80
2022-10-26T01:24:59.245Z,18.80
2022-10-26T01:27:29.062Z,18.80
2022-10-26T01:30:15.033Z,18.80
2022-10-26T01:33:08.377Z,18.80
2022-10-26T01:35:50.553Z,18.80
2022-10-26T01:38:30.181Z,18.80
2022-10-26T01:41:20.753Z,18.80
2022-10-26T01:43:56.636Z,18.70
2022-10-26T01:46:27.147Z,18.70
2022-10-26T01:48:59.438Z,18.70
2022-10-26T01:51:27.928Z,18.70
2022-10-26T01:53:55.261Z,18.60
2022-10-26T01:56:26.806Z,18.60
2022-10-26T01:59:36.765Z,18.60
2022-10-26T02:02:18.971Z,18.50
2022-10-26T02:05:13.739Z,18.50
2022-10-26T02:07:54.837Z,18.50
2022-10-26T02:10:24.857Z,18.50
2022-10-26T02:13:03.138Z,18.50
2022-10-26T02:15:48.599Z,18.50
2022-10-26T02:18:28.116Z,18.50
2022-10-26T02:21:13.242Z,18.50
2022-10-26T02:23:43.971Z,18.40
2022-10-26T02:26:13.844Z,18.40
2022-10-26T02:28:46.287Z,18.40
2022-10-26T02:31:15.594Z,18.30
2022-10-26T02:33:50.775Z,18.30
2022-10-26T02:36:26.142Z,18.30
2022-10-26T02:38:55.385Z,18.30
2022-10-26T02:41:24.392Z,18.40
2022-10-26T02:43:57.282Z,18.40
2022-10-26T02:46:27.837Z,18.30
2022-10-26T02:48:57.106Z,18.30
2022-10-26T02:51:41.023Z,18.30
2022-10-26T02:54:16.035Z,18.30
2022-10-26T02:56:56.764Z,18.30
2022-10-26T02:59:28.196Z,18.40
2022-10-26T03:01:55.906Z,18.40
2022-10-26T03:04:30.165Z,18.40
2022-10-26T03:06:57.717Z,18.40
2022-10-26T03:09:25.724Z,18.40
2022-10-26T03:11:53.546Z,18.30
2022-10-26T03:14:20.887Z,18.30
2022-10-26T03:16:48.220Z,18.30
2022-10-26T03:19:15.445Z,18.30
2022-10-26T03:21:42.751Z,18.30
2022-10-26T03:24:11.100Z,18.30
2022-10-26T03:26:38.348Z,18.30
2022-10-26T03:29:05.692Z,18.20
2022-10-26T03:31:33.004Z,18.10
2022-10-26T03:34:00.365Z,18.10
2022-10-26T03:36:27.704Z,18.10
2022-10-26T03:38:54.829Z,18.00
2022-10-26T03:41:22.112Z,18.00
2022-10-26T03:43:49.388Z,17.90
2022-10-26T03:46:16.728Z,17.90
2022-10-26T03:48:43.824Z,17.90
2022-10-26T03:51:11.091Z,17.90
2022-10-26T03:53:38.196Z,17.90
2022-10-26T03:56:05.811Z,17.90
2022-10-26T03:58:34.040Z,17.80
2022-10-26T04:01:01.290Z,17.80
2022-10-26T04:03:28.552Z,17.80
2022-10-26T04:05:55.855Z,17.80
2022-10-26T04:08:22.935Z,17.80
2022-10-26T04:10:50.131Z,17.80
2022-10-26T04:13:17.540Z,17.80
2022-10-26T04:15:44.821Z,17.80
2022-10-26T04:18:13.176Z,17.80
2022-10-26T04:20:44.273Z,17.70
2022-10-26T04:23:16.656Z,17.70
2022-10-26T04:25:44.449Z,17.60
2022-10-26T04:28:13.169Z,17.60
2022-10-26T04:30:40.938Z,17.60
2022-10-26T04:33:08.142Z,17.60
2022-10-26T04:35:35.588Z,17.60
2022-10-26T04:38:05.413Z,17.60
2022-10-26T04:40:34.024Z,17.70
2022-10-26T04:43:01.737Z,17.70
2022-10-26T04:45:31.147Z,17.70
2022-10-26T04:48:05.858Z,17.70
2022-10-26T04:50:33.585Z,17.70
2022-10-26T04:53:05.264Z,17.60
2022-10-26T04:55:32.532Z,17.60
2022-10-26T04:58:01.374Z,17.60
2022-10-26T05:00:30.440Z,17.60
2022-10-26T05:03:05.702Z,17.70
2022-10-26T05:05:34.730Z,17.70
2022-10-26T05:08:02.177Z,17.70
2022-10-26T05:10:29.559Z,17.70
2022-10-26T05:12:59.484Z,17.70
2022-10-26T05:15:27.503Z,17.70
2022-10-26T05:18:05.670Z,17.70
2022-10-26T05:20:35.365Z,17.80
2022-10-26T05:23:05.717Z,17.80
2022-10-26T05:25:36.691Z,17.90
2022-10-26T05:28:06.638Z,17.90
2022-10-26T05:30:34.195Z,17.90
2022-10-26T05:33:03.511Z,17.90
2022-10-26T05:35:32.137Z,17.90
2022-10-26T05:38:00.000Z,18.00
2022-10-26T05:40:27.797Z,18.00
2022-10-26T05:43:05.305Z,18.00
2022-10-26T05:45:32.709Z,18.00
2022-10-26T05:48:02.614Z,18.10
2022-10-26T05:50:30.832Z,18.10
2022-10-26T05:53:00.402Z,18.20
2022-10-26T05:55:28.265Z,18.40
2022-10-26T05:57:55.831Z,18.40
2022-10-26T06:00:26.608Z,18.50
2022-10-26T06:03:09.682Z,18.60
2022-10-26T06:06:01.644Z,18.60
2022-10-26T06:08:32.052Z,18.70
2022-10-26T06:11:01.474Z,18.80
2022-10-26T06:13:29.060Z,18.90
2022-10-26T06:16:02.116Z,19.00
2022-10-26T06:18:47.900Z,19.10
2022-10-26T06:21:40.155Z,19.20
2022-10-26T06:24:27.802Z,19.30
2022-10-26T06:27:00.059Z,19.40
2022-10-26T06:29:46.169Z,19.60
2022-10-26T06:32:14.341Z,19.70
2022-10-26T06:34:52.876Z,19.80
2022-10-26T06:37:21.654Z,19.90
2022-10-26T06:39:54.004Z,19.90
2022-10-26T06:42:23.006Z,20.00
2022-10-26T06:44:50.732Z,20.20
2022-10-26T06:47:41.675Z,20.30
2022-10-26T06:50:47.786Z,20.40
2022-10-26T06:53:25.737Z,20.50
2022-10-26T06:55:53.660Z,20.70
2022-10-26T06:58:24.118Z,20.80
2022-10-26T07:00:54.723Z,20.90
2022-10-26T07:03:23.853Z,21.00
2022-10-26T07:05:51.679Z,21.20
2022-10-26T07:08:19.391Z,21.30
2022-10-26T07:10:49.916Z,21.40
2022-10-26T07:13:19.652Z,21.60
2022-10-26T07:15:48.257Z,21.60
2022-10-26T07:18:15.513Z,21.80
2022-10-26T07:20:42.997Z,21.90
2022-10-26T07:23:13.824Z,22.00
2022-10-26T07:25:41.124Z,22.20
2022-10-26T07:28:10.858Z,22.30
2022-10-26T07:30:40.680Z,22.40
2022-10-26T07:33:12.608Z,22.60
2022-10-26T07:35:40.719Z,22.70
2022-10-26T07:38:08.493Z,22.80
2022-10-26T07:40:38.211Z,23.00
2022-10-26T07:43:06.272Z,23.10
2022-10-26T07:45:34.338Z,23.20
2022-10-26T07:48:02.318Z,23.30
2022-10-26T07:50:29.795Z,23.50
2022-10-26T07:52:59.994Z,23.60
2022-10-26T07:55:28.466Z,23.70
2022-10-26T07:57:56.755Z,23.90
2022-10-26T08:00:26.933Z,24.00
2022-10-26T08:02:54.792Z,24.10
2022-10-26T08:05:22.229Z,24.20
2022-10-26T08:07:49.966Z,24.20
2022-10-26T08:10:17.710Z,24.20
2022-10-26T08:12:45.230Z,24.30
2022-10-26T08:15:12.386Z,24.40
2022-10-26T08:17:39.690Z,24.60
2022-10-26T08:20:07.637Z,24.60
2022-10-26T08:22:34.939Z,24.60
2022-10-26T08:25:02.203Z,24.70
2022-10-26T08:27:29.494Z,24.70
2022-10-26T08:29:56.712Z,24.70
2022-10-26T08:32:26.767Z,24.80
2022-10-26T08:34:54.110Z,24.90
2022-10-26T08:37:21.287Z,25.00
2022-10-26T08:39:50.608Z,25.20
2022-10-26T08:42:35.683Z,25.30
2022-10-26T08:45:43.391Z,25.50
2022-10-26T08:48:24.566Z,25.60
2022-10-26T08:50:56.936Z,25.80
2022-10-26T08:53:54.676Z,25.90
2022-10-26T08:56:25.924Z,26.00
2022-10-26T08:59:18.121Z,26.20
2022-10-26T09:01:45.493Z,26.40
2022-10-26T09:04:13.868Z,26.50
2022-10-26T09:07:00.563Z,26.60
2022-10-26T09:10:04.291Z,26.70
2022-10-26T09:13:11.824Z,26.80
2022-10-26T09:15:58.174Z,26.90
2022-10-26T09:21:30.153Z,27.00
2022-10-26T09:24:22.297Z,26.90
2022-10-26T09:26:55.135Z,27.00
2022-10-26T09:29:29.729Z,27.10
2022-10-26T09:32:03.109Z,27.30
2022-10-26T09:34:39.375Z,27.30
2022-10-26T09:37:18.606Z,27.50
2022-10-26T09:40:13.453Z,27.60
2022-10-26T09:43:12.371Z,27.70
2022-10-26T09:45:44.967Z,27.80
2022-10-26T09:48:28.134Z,27.80
2022-10-26T09:51:01.970Z,27.90
2022-10-26T09:53:33.426Z,27.80
2022-10-26T09:56:08.342Z,27.70
2022-10-26T09:58:49.087Z,27.70
2022-10-26T10:01:30.284Z,27.70
2022-10-26T10:04:22.898Z,27.70
2022-10-26T10:07:02.212Z,27.60
2022-10-26T10:09:29.775Z,27.60
2022-10-26T10:12:06.007Z,27.50
2022-10-26T10:14:58.264Z,27.50
2022-10-26T10:17:26.171Z,27.50
2022-10-26T10:20:07.085Z,27.40
2022-10-26T10:22:34.661Z,27.50
2022-10-26T10:25:22.169Z,27.70
2022-10-26T10:27:54.793Z,27.70
2022-10-26T10:30:28.336Z,27.80
2022-10-26T10:33:11.651Z,27.80
2022-10-26T10:35:47.951Z,27.90
2022-10-26T10:38:20.627Z,27.80
2022-10-26T10:40:58.119Z,27.80
2022-10-26T10:43:27.483Z,27.70
2022-10-26T10:46:01.135Z,27.70
2022-10-26T10:48:29.543Z,28.00
2022-10-26T10:51:13.291Z,28.40
2022-10-26T10:53:53.486Z,29.00
2022-10-26T10:56:37.945Z,29.40
2022-10-26T10:59:34.435Z,29.80
2022-10-26T11:02:39.335Z,30.20
2022-10-26T11:05:33.908Z,30.40
2022-10-26T11:08:08.715Z,30.60
2022-10-26T11:11:05.801Z,30.80
2022-10-26T11:14:00.599Z,31.00
2022-10-26T11:16:37.434Z,31.30
2022-10-26T11:19:45.340Z,31.10
2022-10-26T11:22:23.416Z,31.10
2022-10-26T11:25:06.177Z,31.10
2022-10-26T11:27:41.181Z,31.20
2022-10-26T11:30:21.204Z,31.10
2022-10-26T11:33:02.478Z,31.60
2022-10-26T11:35:47.161Z,31.70
2022-10-26T11:38:46.551Z,31.90
2022-10-26T11:41:32.100Z,31.20
2022-10-26T11:44:12.557Z,31.60
2022-10-26T11:46:54.631Z,32.10
2022-10-26T11:49:55.778Z,32.10
2022-10-26T11:52:28.692Z,32.30
2022-10-26T11:55:04.909Z,32.30
2022-10-26T11:57:39.842Z,32.70
2022-10-26T12:00:07.550Z,32.40
2022-10-26T12:05:15.809Z,32.50
2022-10-26T12:07:55.988Z,32.60
2022-10-26T12:10:50.469Z,32.80
2022-10-26T12:13:48.218Z,32.60
2022-10-26T12:16:41.388Z,32.10
2022-10-26T12:22:02.929Z,30.80
2022-10-26T12:24:35.724Z,30.30
2022-10-26T12:27:07.528Z,30.70
2022-10-26T12:29:47.370Z,31.40
2022-10-26T12:32:39.125Z,31.70
2022-10-26T12:35:32.319Z,32.20
2022-10-26T12:38:02.321Z,32.30
2022-10-26T12:40:40.631Z,32.80
2022-10-26T12:43:17.353Z,32.50
2022-10-26T12:46:07.620Z,32.30
2022-10-26T12:48:45.851Z,32.40
2022-10-26T12:51:22.032Z,32.90
2022-10-26T12:54:24.102Z,33.10
2022-10-26T12:57:17.523Z,33.40
2022-10-26T13:00:03.153Z,33.20
2022-10-26T13:02:40.208Z,32.50
2022-10-26T13:05:20.231Z,31.70
2022-10-26T13:07:47.737Z,31.10
2022-10-26T13:10:27.138Z,30.40
2022-10-26T13:13:02.531Z,30.00
2022-10-26T13:15:40.275Z,29.70
2022-10-26T13:18:18.439Z,29.50
2022-10-26T13:21:09.555Z,29.40
2022-10-26T13:23:40.889Z,29.20
2022-10-26T13:26:12.970Z,29.00
2022-10-26T13:28:48.255Z,29.00
2022-10-26T13:31:27.156Z,28.90
2022-10-26T13:34:11.005Z,28.80
2022-10-26T13:37:04.430Z,28.70
2022-10-26T13:39:36.841Z,28.60
2022-10-26T13:42:06.359Z,28.60
2022-10-26T13:44:42.365Z,28.60
2022-10-26T13:47:22.365Z,28.60
2022-10-26T13:49:54.818Z,28.60
2022-10-26T13:52:34.778Z,28.50
2022-10-26T13:55:29.044Z,28.50
2022-10-26T13:58:37.223Z,28.50
2022-10-26T14:01:12.137Z,28.50
2022-10-26T14:03:43.677Z,28.40
2022-10-26T14:06:35.718Z,28.40
2022-10-26T14:09:12.398Z,28.40
2022-10-26T14:12:01.953Z,28.40
2022-10-26T14:14:36.770Z,28.40
2022-10-26T14:17:05.315Z,28.30
2022-10-26T14:19:34.545Z,28.20
2022-10-26T14:22:02.970Z,28.20
2022-10-26T14:24:46.761Z,28.20
2022-10-26T14:27:19.441Z,28.10
2022-10-26T14:30:10.178Z,28.00
2022-10-26T14:32:36.843Z,27.90
2022-10-26T14:35:04.719Z,27.80
2022-10-26T14:37:49.169Z,27.70
2022-10-26T14:40:21.431Z,27.60
2022-10-26T14:42:52.098Z,27.50
2022-10-26T14:45:46.877Z,27.50
2022-10-26T14:48:32.875Z,27.50
2022-10-26T14:51:07.582Z,27.50
2022-10-26T14:53:42.218Z,27.40
2022-10-26T14:56:31.692Z,27.40
2022-10-26T14:58:59.412Z,27.30
2022-10-26T15:01:31.789Z,27.30
2022-10-26T15:04:23.147Z,27.30
2022-10-26T15:06:53.490Z,27.20
2022-10-26T15:09:50.829Z,27.20
2022-10-26T15:12:28.797Z,27.10
2022-10-26T15:15:06.282Z,27.00
2022-10-26T15:17:39.641Z,26.90
2022-10-26T15:20:14.578Z,26.80
2022-10-26T15:23:13.538Z,26.80
2022-10-26T15:25:50.960Z,26.70
2022-10-26T15:28:38.704Z,26.60
2022-10-26T15:31:11.676Z,26.50
2022-10-26T15:33:39.928Z,26.50
2022-10-26T15:36:17.565Z,26.50
2022-10-26T15:38:46.398Z,26.40
2022-10-26T15:41:33.471Z,26.40
2022-10-26T15:44:06.818Z,26.30
2022-10-26T15:46:41.184Z,26.20
2022-10-26T15:49:18.718Z,26.20
2022-10-26T15:51:49.920Z,26.20
2022-10-26T15:54:19.735Z,26.10
2022-10-26T15:56:47.956Z,26.10
2022-10-26T15:59:19.353Z,26.00
2022-10-26T16:01:46.831Z,25.90
2022-10-26T16:04:15.513Z,25.90
2022-10-26T16:06:42.971Z,25.80
2022-10-26T16:09:19.549Z,25.70
2022-10-26T16:11:46.827Z,25.60
2022-10-26T16:14:13.954Z,25.50
2022-10-26T16:16:41.626Z,25.40
2022-10-26T16:19:31.005Z,25.30
2022-10-26T16:21:58.549Z,25.30
2022-10-26T16:24:26.811Z,25.20
2022-10-26T16:26:54.453Z,25.10
2022-10-26T16:29:22.103Z,25.00
2022-10-26T16:31:49.367Z,25.00
2022-10-26T16:34:16.503Z,24.90
2022-10-26T16:36:43.697Z,24.90
2022-10-26T16:39:14.940Z,24.80
2022-10-26T16:41:42.250Z,24.70
2022-10-26T16:44:13.451Z,24.80
2022-10-26T16:46:40.658Z,24.80
2022-10-26T16:49:07.820Z,24.80
2022-10-26T16:51:35.202Z,24.70
2022-10-26T16:54:02.459Z,24.60
2022-10-26T16:56:30.740Z,24.50
2022-10-26T16:58:58.067Z,24.40
2022-10-26T17:01:25.724Z,24.30
2022-10-26T17:03:53.605Z,24.30
2022-10-26T17:06:21.619Z,24.30
2022-10-26T17:08:49.039Z,24.20
2022-10-26T17:11:19.005Z,24.10
2022-10-26T17:13:46.848Z,24.00
2022-10-26T17:16:20.004Z,24.00
2022-10-26T17:18:48.124Z,23.90
2022-10-26T17:21:17.431Z,23.90
2022-10-26T17:23:45.183Z,23.90
2022-10-26T17:26:14.028Z,23.90
2022-10-26T17:28:41.302Z,24.00
2022-10-26T17:31:16.077Z,23.90
2022-10-26T17:33:44.470Z,23.90
2022-10-26T17:36:17.109Z,23.90
2022-10-26T17:38:46.441Z,23.80
2022-10-26T17:41:16.448Z,23.80
2022-10-26T17:43:44.765Z,23.70
2022-10-26T17:46:17.022Z,23.70
2022-10-26T17:48:44.596Z,23.60
2022-10-26T17:51:19.520Z,23.60
2022-10-26T17:53:47.627Z,23.50
2022-10-26T17:56:37.570Z,23.50
2022-10-26T17:59:09.560Z,23.40
2022-10-26T18:01:37.101Z,23.30
2022-10-26T18:04:04.444Z,23.20
2022-10-26T18:06:31.751Z,23.10
2022-10-26T18:09:00.001Z,23.10
2022-10-26T18:11:28.576Z,23.00
2022-10-26T18:13:57.181Z,22.90
2022-10-26T18:16:26.334Z,22.80
2022-10-26T18:19:00.958Z,22.70
2022-10-26T18:21:35.218Z,22.70
2022-10-26T18:24:02.792Z,22.60
2022-10-26T18:26:31.318Z,22.60
2022-10-26T18:28:59.894Z,22.50
2022-10-26T18:31:28.640Z,22.50
2022-10-26T18:34:04.098Z,22.50
2022-10-26T18:36:31.775Z,22.40
2022-10-26T18:38:59.253Z,22.40
2022-10-26T18:41:26.867Z,22.30
2022-10-26T18:43:56.701Z,22.30
2022-10-26T18:46:27.929Z,22.30
2022-10-26T18:48:56.643Z,22.30
2022-10-26T18:51:26.173Z,22.30
2022-10-26T18:53:53.473Z,22.30
2022-10-26T18:56:22.284Z,22.30
2022-10-26T18:58:52.001Z,22.20
2022-10-26T19:01:24.686Z,22.20
2022-10-26T19:03:57.376Z,22.10
2022-10-26T19:06:27.408Z,22.10
2022-10-26T19:08:54.695Z,22.10
2022-10-26T19:11:23.498Z,22.00
2022-10-26T19:13:54.228Z,22.00
2022-10-26T19:16:45.342Z,21.90
2022-10-26T19:19:15.863Z,21.90
2022-10-26T19:21:43.651Z,21.90
2022-10-26T19:24:19.564Z,21.90
2022-10-26T19:26:47.709Z,21.90
2022-10-26T19:29:16.724Z,21.90
2022-10-26T19:31:45.543Z,21.80
2022-10-26T19:34:14.334Z,21.80
2022-10-26T19:36:44.940Z,21.70
2022-10-26T19:39:14.444Z,21.70
2022-10-26T19:41:41.982Z,21.70
2022-10-26T19:44:41.943Z,21.70
2022-10-26T19:47:11.888Z,21.70
2022-10-26T19:49:39.174Z,21.70
2022-10-26T19:52:06.597Z,21.70
2022-10-26T19:54:33.810Z,21.70
2022-10-26T19:57:01.069Z,21.60
2022-10-26T19:59:28.116Z,21.60
2022-10-26T20:02:07.710Z,21.50
2022-10-26T20:04:37.217Z,21.50
2022-10-26T20:07:04.298Z,21.40
2022-10-26T20:09:34.290Z,21.40
2022-10-26T20:12:04.784Z,21.40
2022-10-26T20:14:31.974Z,21.40
2022-10-26T20:16:59.418Z,21.40
2022-10-26T20:19:26.630Z,21.40
2022-10-26T20:21:53.700Z,21.40
2022-10-26T20:24:22.743Z,21.40
2022-10-26T20:26:52.302Z,21.40
2022-10-26T20:29:19.531Z,21.40
2022-10-26T20:31:53.787Z,21.40
2022-10-26T20:34:23.234Z,21.40
2022-10-26T20:36:50.339Z,21.40
2022-10-26T20:39:18.065Z,21.40
2022-10-26T20:41:45.915Z,21.40
2022-10-26T20:44:23.604Z,21.30
2022-10-26T20:46:51.172Z,21.20
2022-10-26T20:49:18.568Z,21.20
2022-10-26T20:52:19.026Z,21.10
2022-10-26T20:55:19.762Z,21.00
2022-10-26T20:57:55.718Z,21.00
2022-10-26T21:00:23.147Z,20.90
2022-10-26T21:02:50.712Z,20.80
2022-10-26T21:05:21.112Z,20.80
2022-10-26T21:07:48.395Z,20.80
2022-10-26T21:10:15.615Z,20.80
2022-10-26T21:12:43.046Z,20.80
2022-10-26T21:15:10.423Z,20.90
2022-10-26T21:17:37.538Z,20.90
2022-10-26T21:20:05.183Z,20.90
2022-10-26T21:22:32.458Z,20.90
2022-10-26T21:25:02.131Z,20.90
2022-10-26T21:27:29.260Z,20.90
2022-10-26T21:29:56.411Z,20.90
2022-10-26T21:32:23.687Z,20.80
2022-10-26T21:34:51.027Z,20.80
2022-10-26T21:37:18.303Z,20.70
2022-10-26T21:39:45.425Z,20.70
2022-10-26T21:42:16.854Z,20.70
2022-10-26T21:44:44.160Z,20.70
2022-10-26T21:47:12.912Z,20.70
2022-10-26T21:52:12.269Z,20.60
2022-10-26T21:54:39.467Z,20.60
2022-10-26T21:57:06.806Z,20.60
2022-10-26T21:59:34.731Z,20.60
2022-10-26T22:02:02.157Z,20.60
2022-10-26T22:04:29.478Z,20.50
2022-10-26T22:06:56.658Z,20.40
2022-10-26T22:09:23.776Z,20.40
2022-10-26T22:11:50.972Z,20.40
2022-10-26T22:14:18.707Z,20.40
2022-10-26T22:16:45.841Z,20.40
2022-10-26T22:19:13.061Z,20.40
2022-10-26T22:21:42.045Z,20.40
2022-10-26T22:24:09.629Z,20.50
2022-10-26T22:26:40.056Z,20.40
2022-10-26T22:29:07.357Z,20.40
2022-10-26T22:32:02.937Z,20.30
2022-10-26T22:34:30.508Z,20.30
2022-10-26T22:36:57.719Z,20.20
2022-10-26T22:39:24.928Z,20.20
2022-10-26T22:41:52.166Z,20.20
2022-10-26T22:44:19.789Z,20.10
2022-10-26T22:46:47.080Z,20.10
2022-10-26T22:49:14.285Z,20.10
2022-10-26T22:51:41.584Z,20.10
2022-10-26T22:54:08.860Z,20.00
2022-10-26T22:56:36.474Z,20.00
2022-10-26T22:59:04.541Z,20.00
2022-10-26T23:01:38.759Z,19.90
2022-10-26T23:04:06.185Z,19.90
2022-10-26T23:06:34.064Z,20.00
2022-10-26T23:09:01.292Z,20.00
2022-10-26T23:11:29.636Z,19.90
2022-10-26T23:13:59.399Z,20.00
2022-10-26T23:16:27.685Z,20.00
2022-10-26T23:18:55.344Z,20.00
2022-10-26T23:21:24.182Z,20.00
2022-10-26T23:23:51.451Z,20.00
2022-10-26T23:26:21.085Z,20.00
2022-10-26T23:28:50.170Z,20.00
2022-10-26T23:31:26.153Z,20.00
2022-10-26T23:33:55.399Z,19.90
2022-10-26T23:36:23.347Z,19.90
2022-10-26T23:38:50.473Z,19.80
2022-10-26T23:41:17.612Z,19.80
2022-10-26T23:43:44.847Z,19.80
2022-10-26T23:46:12.078Z,19.80
2022-10-26T23:48:39.307Z,19.80
2022-10-26T23:51:06.601Z,19.70
2022-10-26T23:53:33.979Z,19.70
2022-10-26T23:56:01.422Z,19.70
2022-10-26T23:58:28.636Z,19.60
